sensor_id;sensor_type;location;lat;lon;timestamp;pressure;altitude;pressure_sealevel;temperature;humidity
36092;BME280;22147;52.388;13.390;2023-03-14T00:01:32;98672.75;;;10.51;100.00
36092;BME280;22147;52.388;13.390;2023-03-14T00:04:05;98676.25;;;10.44;100.00
36092;BME280;22147;52.388;13.390;2023-03-14T00:06:35;98668.72;;;10.45;100.00
36092;BME280;22147;52.388;13.390;2023-03-14T00:09:06;98664.25;;;10.36;100.00
36092;BME280;22147;52.388;13.390;2023-03-14T00:11:36;98670.00;;;10.51;100.00
36092;BME280;22147;52.388;13.390;2023-03-14T00:14:06;98667.59;;;10.49;100.00
36092;BME280;22147;52.388;13.390;2023-03-14T00:16:36;98650.63;;;10.28;100.00
36092;BME280;22147;52.388;13.390;2023-03-14T00:19:06;98646.88;;;10.39;100.00
36092;BME280;22147;52.388;13.390;2023-03-14T00:21:37;98621.66;;;10.55;100.00
36092;BME280;22147;52.388;13.390;2023-03-14T00:24:08;98625.41;;;10.36;100.00
36092;BME280;22147;52.388;13.390;2023-03-14T00:26:38;98619.84;;;10.36;100.00
36092;BME280;22147;52.388;13.390;2023-03-14T00:29:08;98607.97;;;10.09;100.00
36092;BME280;22147;52.388;13.390;2023-03-14T00:31:38;98613.06;;;10.04;100.00
36092;BME280;22147;52.388;13.390;2023-03-14T00:34:09;98616.22;;;10.02;100.00
36092;BME280;22147;52.388;13.390;2023-03-14T00:36:39;98608.31;;;10.31;100.00
36092;BME280;22147;52.388;13.390;2023-03-14T00:39:12;98609.72;;;10.21;100.00
36092;BME280;22147;52.388;13.390;2023-03-14T00:41:42;98600.91;;;10.12;100.00
36092;BME280;22147;52.388;13.390;2023-03-14T00:44:12;98602.28;;;9.98;100.00
36092;BME280;22147;52.388;13.390;2023-03-14T00:46:42;98613.50;;;10.06;100.00
36092;BME280;22147;52.388;13.390;2023-03-14T00:49:12;98613.09;;;10.07;100.00
36092;BME280;22147;52.388;13.390;2023-03-14T00:51:42;98608.81;;;9.83;100.00
36092;BME280;22147;52.388;13.390;2023-03-14T00:54:12;98597.75;;;9.83;100.00
36092;BME280;22147;52.388;13.390;2023-03-14T00:56:42;98595.38;;;9.85;100.00
36092;BME280;22147;52.388;13.390;2023-03-14T00:59:13;98582.38;;;9.89;100.00
36092;BME280;22147;52.388;13.390;2023-03-14T01:01:43;98584.31;;;9.85;100.00
36092;BME280;22147;52.388;13.390;2023-03-14T01:04:13;98573.84;;;9.75;100.00
36092;BME280;22147;52.388;13.390;2023-03-14T01:06:43;98571.38;;;9.96;100.00
36092;BME280;22147;52.388;13.390;2023-03-14T01:09:12;98574.41;;;9.84;100.00
36092;BME280;22147;52.388;13.390;2023-03-14T01:11:40;98571.84;;;9.72;100.00
36092;BME280;22147;52.388;13.390;2023-03-14T01:14:10;98589.56;;;9.94;100.00
36092;BME280;22147;52.388;13.390;2023-03-14T01:16:37;98585.38;;;9.77;100.00
36092;BME280;22147;52.388;13.390;2023-03-14T01:19:06;98596.53;;;10.11;100.00
36092;BME280;22147;52.388;13.390;2023-03-14T01:21:35;98615.50;;;10.09;100.00
36092;BME280;22147;52.388;13.390;2023-03-14T01:24:05;98642.81;;;10.07;100.00
36092;BME280;22147;52.388;13.390;2023-03-14T01:26:35;98641.69;;;10.11;100.00
36092;BME280;22147;52.388;13.390;2023-03-14T01:29:03;98628.81;;;9.96;100.00
36092;BME280;22147;52.388;13.390;2023-03-14T01:31:31;98627.91;;;9.88;100.00
36092;BME280;22147;52.388;13.390;2023-03-14T01:33:59;98636.06;;;10.04;100.00
36092;BME280;22147;52.388;13.390;2023-03-14T01:36:28;98632.28;;;9.89;100.00
36092;BME280;22147;52.388;13.390;2023-03-14T01:39:00;98628.56;;;9.78;100.00
36092;BME280;22147;52.388;13.390;2023-03-14T01:41:30;98632.84;;;10.02;100.00
36092;BME280;22147;52.388;13.390;2023-03-14T01:44:00;98630.31;;;9.90;100.00
36092;BME280;22147;52.388;13.390;2023-03-14T01:46:45;98640.50;;;9.82;100.00
36092;BME280;22147;52.388;13.390;2023-03-14T01:49:31;98638.78;;;9.74;100.00
36092;BME280;22147;52.388;13.390;2023-03-14T01:52:18;98647.56;;;9.79;100.00
36092;BME280;22147;52.388;13.390;2023-03-14T01:55:05;98654.13;;;9.94;100.00
36092;BME280;22147;52.388;13.390;2023-03-14T01:57:46;98650.94;;;9.92;100.00
36092;BME280;22147;52.388;13.390;2023-03-14T02:00:23;98644.00;;;9.79;100.00
36092;BME280;22147;52.388;13.390;2023-03-14T02:03:00;98624.53;;;9.75;100.00
36092;BME280;22147;52.388;13.390;2023-03-14T02:05:40;98622.81;;;9.64;100.00
36092;BME280;22147;52.388;13.390;2023-03-14T02:08:17;98614.16;;;9.69;100.00
36092;BME280;22147;52.388;13.390;2023-03-14T02:10:50;98613.78;;;9.70;100.00
36092;BME280;22147;52.388;13.390;2023-03-14T02:13:21;98600.84;;;9.51;100.00
36092;BME280;22147;52.388;13.390;2023-03-14T02:15:51;98603.91;;;9.73;100.00
36092;BME280;22147;52.388;13.390;2023-03-14T02:18:22;98595.19;;;9.71;100.00
36092;BME280;22147;52.388;13.390;2023-03-14T02:21:02;98599.56;;;9.72;100.00
36092;BME280;22147;52.388;13.390;2023-03-14T02:24:20;98599.28;;;9.54;100.00
36092;BME280;22147;52.388;13.390;2023-03-14T02:27:17;98598.41;;;9.46;100.00
36092;BME280;22147;52.388;13.390;2023-03-14T02:30:03;98602.06;;;9.54;100.00
36092;BME280;22147;52.388;13.390;2023-03-14T02:32:54;98595.72;;;9.53;100.00
36092;BME280;22147;52.388;13.390;2023-03-14T02:35:40;98589.28;;;9.72;100.00
36092;BME280;22147;52.388;13.390;2023-03-14T02:41:07;98587.13;;;9.62;100.00
36092;BME280;22147;52.388;13.390;2023-03-14T02:43:37;98587.72;;;9.75;100.00
36092;BME280;22147;52.388;13.390;2023-03-14T02:46:13;98572.41;;;9.85;100.00
36092;BME280;22147;52.388;13.390;2023-03-14T02:49:03;98587.44;;;9.84;100.00
36092;BME280;22147;52.388;13.390;2023-03-14T02:51:40;98580.44;;;9.93;100.00
36092;BME280;22147;52.388;13.390;2023-03-14T02:54:15;98567.28;;;9.87;100.00
36092;BME280;22147;52.388;13.390;2023-03-14T02:56:45;98556.44;;;9.74;100.00
36092;BME280;22147;52.388;13.390;2023-03-14T02:59:15;98544.28;;;9.56;100.00
36092;BME280;22147;52.388;13.390;2023-03-14T03:01:46;98547.00;;;9.79;100.00
36092;BME280;22147;52.388;13.390;2023-03-14T03:04:16;98530.78;;;9.81;100.00
36092;BME280;22147;52.388;13.390;2023-03-14T03:06:46;98537.31;;;9.66;100.00
36092;BME280;22147;52.388;13.390;2023-03-14T03:09:16;98521.81;;;9.61;100.00
36092;BME280;22147;52.388;13.390;2023-03-14T03:11:46;98517.19;;;9.72;100.00
36092;BME280;22147;52.388;13.390;2023-03-14T03:14:16;98500.09;;;9.67;100.00
36092;BME280;22147;52.388;13.390;2023-03-14T03:16:46;98497.75;;;9.69;100.00
36092;BME280;22147;52.388;13.390;2023-03-14T03:19:16;98491.28;;;9.57;100.00
36092;BME280;22147;52.388;13.390;2023-03-14T03:21:47;98486.56;;;9.62;100.00
36092;BME280;22147;52.388;13.390;2023-03-14T03:24:18;98498.16;;;9.67;100.00
36092;BME280;22147;52.388;13.390;2023-03-14T03:26:48;98506.25;;;9.53;100.00
36092;BME280;22147;52.388;13.390;2023-03-14T03:29:18;98526.06;;;9.55;100.00
36092;BME280;22147;52.388;13.390;2023-03-14T03:31:49;98522.47;;;9.51;100.00
36092;BME280;22147;52.388;13.390;2023-03-14T03:34:19;98521.50;;;9.40;100.00
36092;BME280;22147;52.388;13.390;2023-03-14T03:36:49;98512.28;;;9.32;100.00
36092;BME280;22147;52.388;13.390;2023-03-14T03:39:19;98515.59;;;9.41;100.00
36092;BME280;22147;52.388;13.390;2023-03-14T03:41:49;98519.69;;;9.24;100.00
36092;BME280;22147;52.388;13.390;2023-03-14T03:44:19;98529.69;;;9.32;100.00
36092;BME280;22147;52.388;13.390;2023-03-14T03:46:49;98521.72;;;9.27;100.00
36092;BME280;22147;52.388;13.390;2023-03-14T03:49:19;98520.53;;;9.28;100.00
36092;BME280;22147;52.388;13.390;2023-03-14T03:51:49;98516.81;;;9.17;100.00
36092;BME280;22147;52.388;13.390;2023-03-14T03:54:20;98512.31;;;9.35;100.00
36092;BME280;22147;52.388;13.390;2023-03-14T03:56:50;98514.22;;;9.28;100.00
36092;BME280;22147;52.388;13.390;2023-03-14T03:59:21;98513.56;;;9.38;100.00
36092;BME280;22147;52.388;13.390;2023-03-14T04:01:51;98516.34;;;9.38;100.00
36092;BME280;22147;52.388;13.390;2023-03-14T04:04:21;98521.75;;;9.31;100.00
36092;BME280;22147;52.388;13.390;2023-03-14T04:06:52;98523.16;;;9.17;100.00
36092;BME280;22147;52.388;13.390;2023-03-14T04:09:22;98503.19;;;9.31;100.00
36092;BME280;22147;52.388;13.390;2023-03-14T04:11:52;98509.72;;;9.20;100.00
36092;BME280;22147;52.388;13.390;2023-03-14T04:14:23;98514.06;;;9.17;100.00
36092;BME280;22147;52.388;13.390;2023-03-14T04:16:53;98515.34;;;9.23;100.00
36092;BME280;22147;52.388;13.390;2023-03-14T04:19:23;98504.63;;;9.22;100.00
36092;BME280;22147;52.388;13.390;2023-03-14T04:21:53;98504.69;;;9.25;100.00
36092;BME280;22147;52.388;13.390;2023-03-14T04:24:23;98491.47;;;9.15;100.00
36092;BME280;22147;52.388;13.390;2023-03-14T04:26:53;98495.94;;;9.23;100.00
36092;BME280;22147;52.388;13.390;2023-03-14T04:29:24;98496.94;;;9.11;100.00
36092;BME280;22147;52.388;13.390;2023-03-14T04:31:52;98490.19;;;9.09;100.00
36092;BME280;22147;52.388;13.390;2023-03-14T04:34:20;98486.66;;;9.12;100.00
36092;BME280;22147;52.388;13.390;2023-03-14T04:36:49;98482.66;;;9.09;100.00
36092;BME280;22147;52.388;13.390;2023-03-14T04:39:17;98482.72;;;9.13;100.00
36092;BME280;22147;52.388;13.390;2023-03-14T04:41:46;98480.50;;;8.95;100.00
36092;BME280;22147;52.388;13.390;2023-03-14T04:44:14;98474.13;;;8.95;100.00
36092;BME280;22147;52.388;13.390;2023-03-14T04:46:58;98458.34;;;8.95;100.00
36092;BME280;22147;52.388;13.390;2023-03-14T04:49:28;98460.16;;;9.11;100.00
36092;BME280;22147;52.388;13.390;2023-03-14T04:51:56;98452.34;;;9.16;100.00
36092;BME280;22147;52.388;13.390;2023-03-14T04:54:25;98454.25;;;9.12;100.00
36092;BME280;22147;52.388;13.390;2023-03-14T04:56:53;98443.16;;;9.12;100.00
36092;BME280;22147;52.388;13.390;2023-03-14T04:59:22;98444.59;;;9.03;100.00
36092;BME280;22147;52.388;13.390;2023-03-14T05:01:50;98454.28;;;9.16;100.00
36092;BME280;22147;52.388;13.390;2023-03-14T05:04:18;98464.50;;;9.12;100.00
36092;BME280;22147;52.388;13.390;2023-03-14T05:06:47;98467.28;;;9.12;100.00
36092;BME280;22147;52.388;13.390;2023-03-14T05:09:15;98467.50;;;9.00;100.00
36092;BME280;22147;52.388;13.390;2023-03-14T05:11:44;98468.94;;;8.90;100.00
36092;BME280;22147;52.388;13.390;2023-03-14T05:14:12;98456.00;;;8.98;100.00
36092;BME280;22147;52.388;13.390;2023-03-14T05:16:41;98454.56;;;9.07;100.00
36092;BME280;22147;52.388;13.390;2023-03-14T05:19:11;98447.47;;;9.10;100.00
36092;BME280;22147;52.388;13.390;2023-03-14T05:21:41;98432.88;;;9.13;100.00
36092;BME280;22147;52.388;13.390;2023-03-14T05:24:11;98441.97;;;9.13;100.00
36092;BME280;22147;52.388;13.390;2023-03-14T05:26:40;98444.66;;;9.06;100.00
36092;BME280;22147;52.388;13.390;2023-03-14T05:29:10;98438.06;;;9.14;100.00
36092;BME280;22147;52.388;13.390;2023-03-14T05:31:40;98437.63;;;9.12;100.00
36092;BME280;22147;52.388;13.390;2023-03-14T05:34:10;98439.44;;;9.01;100.00
36092;BME280;22147;52.388;13.390;2023-03-14T05:36:40;98436.44;;;9.13;100.00
36092;BME280;22147;52.388;13.390;2023-03-14T05:39:10;98427.84;;;9.19;100.00
36092;BME280;22147;52.388;13.390;2023-03-14T05:41:40;98427.91;;;9.26;100.00
36092;BME280;22147;52.388;13.390;2023-03-14T05:44:10;98446.25;;;9.37;100.00
36092;BME280;22147;52.388;13.390;2023-03-14T05:46:40;98437.22;;;9.10;100.00
36092;BME280;22147;52.388;13.390;2023-03-14T05:49:10;98436.72;;;9.05;100.00
36092;BME280;22147;52.388;13.390;2023-03-14T05:51:40;98443.25;;;9.20;100.00
36092;BME280;22147;52.388;13.390;2023-03-14T05:54:10;98438.72;;;9.08;100.00
36092;BME280;22147;52.388;13.390;2023-03-14T05:56:40;98438.09;;;9.18;100.00
36092;BME280;22147;52.388;13.390;2023-03-14T05:59:09;98431.41;;;9.23;100.00
36092;BME280;22147;52.388;13.390;2023-03-14T06:01:40;98442.13;;;9.24;100.00
36092;BME280;22147;52.388;13.390;2023-03-14T06:04:09;98433.75;;;9.17;100.00
36092;BME280;22147;52.388;13.390;2023-03-14T06:06:40;98439.44;;;9.28;100.00
36092;BME280;22147;52.388;13.390;2023-03-14T06:09:10;98445.09;;;9.38;100.00
36092;BME280;22147;52.388;13.390;2023-03-14T06:11:39;98442.28;;;9.35;100.00
36092;BME280;22147;52.388;13.390;2023-03-14T06:14:09;98433.69;;;9.44;100.00
36092;BME280;22147;52.388;13.390;2023-03-14T06:16:38;98430.31;;;9.57;100.00
36092;BME280;22147;52.388;13.390;2023-03-14T06:19:06;98445.38;;;9.60;100.00
36092;BME280;22147;52.388;13.390;2023-03-14T06:21:35;98433.44;;;9.56;100.00
36092;BME280;22147;52.388;13.390;2023-03-14T06:24:03;98448.75;;;9.76;100.00
36092;BME280;22147;52.388;13.390;2023-03-14T06:26:31;98441.44;;;9.61;100.00
36092;BME280;22147;52.388;13.390;2023-03-14T06:29:00;98432.66;;;9.89;100.00
36092;BME280;22147;52.388;13.390;2023-03-14T06:31:31;98440.00;;;9.74;100.00
36092;BME280;22147;52.388;13.390;2023-03-14T06:34:00;98445.81;;;9.62;100.00
36092;BME280;22147;52.388;13.390;2023-03-14T06:36:28;98445.97;;;9.76;100.00
36092;BME280;22147;52.388;13.390;2023-03-14T06:38:57;98440.91;;;9.82;100.00
36092;BME280;22147;52.388;13.390;2023-03-14T06:41:25;98452.53;;;9.95;100.00
36092;BME280;22147;52.388;13.390;2023-03-14T06:43:53;98450.25;;;10.04;100.00
36092;BME280;22147;52.388;13.390;2023-03-14T06:46:25;98444.41;;;10.13;100.00
36092;BME280;22147;52.388;13.390;2023-03-14T06:48:55;98462.25;;;10.15;100.00
36092;BME280;22147;52.388;13.390;2023-03-14T06:51:25;98461.41;;;10.08;100.00
36092;BME280;22147;52.388;13.390;2023-03-14T06:53:54;98460.56;;;10.07;100.00
36092;BME280;22147;52.388;13.390;2023-03-14T06:56:24;98470.88;;;10.07;100.00
36092;BME280;22147;52.388;13.390;2023-03-14T06:58:54;98466.88;;;10.04;100.00
36092;BME280;22147;52.388;13.390;2023-03-14T07:01:27;98480.81;;;10.11;100.00
36092;BME280;22147;52.388;13.390;2023-03-14T07:03:59;98490.09;;;10.23;100.00
36092;BME280;22147;52.388;13.390;2023-03-14T07:06:29;98487.63;;;10.51;100.00
36092;BME280;22147;52.388;13.390;2023-03-14T07:08:59;98491.97;;;10.49;100.00
36092;BME280;22147;52.388;13.390;2023-03-14T07:11:31;98483.78;;;10.63;100.00
36092;BME280;22147;52.388;13.390;2023-03-14T07:14:01;98490.66;;;10.39;100.00
36092;BME280;22147;52.388;13.390;2023-03-14T07:16:31;98491.34;;;10.29;100.00
36092;BME280;22147;52.388;13.390;2023-03-14T07:19:03;98492.88;;;10.26;100.00
36092;BME280;22147;52.388;13.390;2023-03-14T07:21:33;98501.06;;;10.46;100.00
36092;BME280;22147;52.388;13.390;2023-03-14T07:24:04;98493.09;;;10.44;100.00
36092;BME280;22147;52.388;13.390;2023-03-14T07:26:34;98497.22;;;10.24;100.00
36092;BME280;22147;52.388;13.390;2023-03-14T07:29:05;98497.34;;;10.34;100.00
36092;BME280;22147;52.388;13.390;2023-03-14T07:31:34;98496.59;;;10.37;100.00
36092;BME280;22147;52.388;13.390;2023-03-14T07:34:04;98497.69;;;10.70;100.00
36092;BME280;22147;52.388;13.390;2023-03-14T07:36:34;98508.25;;;10.54;100.00
36092;BME280;22147;52.388;13.390;2023-03-14T07:39:04;98504.38;;;10.28;100.00
36092;BME280;22147;52.388;13.390;2023-03-14T07:41:34;98502.91;;;10.34;100.00
36092;BME280;22147;52.388;13.390;2023-03-14T07:44:04;98510.00;;;10.32;100.00
36092;BME280;22147;52.388;13.390;2023-03-14T07:46:34;98508.50;;;10.38;100.00
36092;BME280;22147;52.388;13.390;2023-03-14T07:49:04;98509.94;;;10.28;100.00
36092;BME280;22147;52.388;13.390;2023-03-14T07:51:34;98507.63;;;10.30;100.00
36092;BME280;22147;52.388;13.390;2023-03-14T07:54:04;98507.16;;;10.25;100.00
36092;BME280;22147;52.388;13.390;2023-03-14T07:56:33;98506.66;;;10.53;100.00
36092;BME280;22147;52.388;13.390;2023-03-14T07:59:03;98501.31;;;10.74;100.00
36092;BME280;22147;52.388;13.390;2023-03-14T08:01:33;98495.72;;;11.15;100.00
36092;BME280;22147;52.388;13.390;2023-03-14T08:04:03;98498.16;;;11.24;100.00
36092;BME280;22147;52.388;13.390;2023-03-14T08:06:36;98496.84;;;11.07;100.00
36092;BME280;22147;52.388;13.390;2023-03-14T08:09:06;98485.72;;;11.11;100.00
36092;BME280;22147;52.388;13.390;2023-03-14T08:11:35;98476.97;;;11.05;100.00
36092;BME280;22147;52.388;13.390;2023-03-14T08:14:05;98490.78;;;10.98;100.00
36092;BME280;22147;52.388;13.390;2023-03-14T08:16:35;98485.75;;;11.14;100.00
36092;BME280;22147;52.388;13.390;2023-03-14T08:19:05;98483.81;;;11.18;100.00
36092;BME280;22147;52.388;13.390;2023-03-14T08:21:35;98490.59;;;11.25;100.00
36092;BME280;22147;52.388;13.390;2023-03-14T08:24:05;98484.34;;;11.42;100.00
36092;BME280;22147;52.388;13.390;2023-03-14T08:26:35;98490.53;;;11.14;100.00
36092;BME280;22147;52.388;13.390;2023-03-14T08:29:05;98489.88;;;11.35;100.00
36092;BME280;22147;52.388;13.390;2023-03-14T08:31:35;98482.25;;;11.25;100.00
36092;BME280;22147;52.388;13.390;2023-03-14T08:34:06;98490.50;;;11.10;100.00
36092;BME280;22147;52.388;13.390;2023-03-14T08:36:36;98491.28;;;11.07;100.00
36092;BME280;22147;52.388;13.390;2023-03-14T08:39:06;98492.81;;;11.05;100.00
36092;BME280;22147;52.388;13.390;2023-03-14T08:41:37;98507.94;;;11.11;100.00
36092;BME280;22147;52.388;13.390;2023-03-14T08:44:11;98510.38;;;11.19;100.00
36092;BME280;22147;52.388;13.390;2023-03-14T08:46:41;98501.25;;;11.15;100.00
36092;BME280;22147;52.388;13.390;2023-03-14T08:49:09;98511.06;;;11.02;100.00
36092;BME280;22147;52.388;13.390;2023-03-14T08:51:38;98514.75;;;11.13;100.00
36092;BME280;22147;52.388;13.390;2023-03-14T08:54:12;98509.59;;;11.19;100.00
36092;BME280;22147;52.388;13.390;2023-03-14T08:56:41;98506.38;;;11.10;100.00
36092;BME280;22147;52.388;13.390;2023-03-14T08:59:09;98513.56;;;11.18;100.00
36092;BME280;22147;52.388;13.390;2023-03-14T09:01:38;98511.84;;;11.03;100.00
36092;BME280;22147;52.388;13.390;2023-03-14T09:04:06;98515.16;;;11.19;100.00
36092;BME280;22147;52.388;13.390;2023-03-14T09:06:35;98503.69;;;11.24;100.00
36092;BME280;22147;52.388;13.390;2023-03-14T09:09:03;98502.88;;;11.24;100.00
36092;BME280;22147;52.388;13.390;2023-03-14T09:11:32;98497.44;;;11.38;100.00
36092;BME280;22147;52.388;13.390;2023-03-14T09:14:00;98489.34;;;11.81;100.00
36092;BME280;22147;52.388;13.390;2023-03-14T09:16:28;98482.00;;;12.42;100.00
36092;BME280;22147;52.388;13.390;2023-03-14T09:18:57;98480.44;;;13.10;100.00
36092;BME280;22147;52.388;13.390;2023-03-14T09:21:29;98483.59;;;13.48;100.00
36092;BME280;22147;52.388;13.390;2023-03-14T09:23:59;98481.44;;;14.02;100.00
36092;BME280;22147;52.388;13.390;2023-03-14T09:26:27;98477.59;;;14.44;100.00
36092;BME280;22147;52.388;13.390;2023-03-14T09:28:56;98475.56;;;14.52;96.73
36092;BME280;22147;52.388;13.390;2023-03-14T09:31:24;98476.72;;;14.62;96.25
36092;BME280;22147;52.388;13.390;2023-03-14T09:33:53;98472.66;;;14.74;94.49
36092;BME280;22147;52.388;13.390;2023-03-14T09:36:21;98485.59;;;14.98;94.94
36092;BME280;22147;52.388;13.390;2023-03-14T09:38:49;98486.25;;;15.17;90.45
36092;BME280;22147;52.388;13.390;2023-03-14T09:41:33;98484.84;;;14.94;92.47
36092;BME280;22147;52.388;13.390;2023-03-14T09:44:19;98480.25;;;14.70;92.47
36092;BME280;22147;52.388;13.390;2023-03-14T09:46:57;98481.75;;;14.81;91.14
36092;BME280;22147;52.388;13.390;2023-03-14T09:49:50;98487.59;;;14.42;92.46
36092;BME280;22147;52.388;13.390;2023-03-14T09:52:31;98482.16;;;14.17;93.05
36092;BME280;22147;52.388;13.390;2023-03-14T09:55:19;98475.06;;;13.98;94.85
36092;BME280;22147;52.388;13.390;2023-03-14T09:58:00;98488.38;;;13.51;93.40
36092;BME280;22147;52.388;13.390;2023-03-14T10:00:35;98486.44;;;13.30;97.30
36092;BME280;22147;52.388;13.390;2023-03-14T10:05:42;98493.56;;;12.95;96.05
36092;BME280;22147;52.388;13.390;2023-03-14T10:08:13;98486.00;;;13.02;96.84
36092;BME280;22147;52.388;13.390;2023-03-14T10:10:42;98484.81;;;12.96;97.87
36092;BME280;22147;52.388;13.390;2023-03-14T10:13:24;98482.44;;;12.73;98.18
36092;BME280;22147;52.388;13.390;2023-03-14T10:16:01;98474.09;;;12.77;96.86
36092;BME280;22147;52.388;13.390;2023-03-14T10:18:35;98500.34;;;12.69;98.72
36092;BME280;22147;52.388;13.390;2023-03-14T10:21:28;98488.00;;;12.73;99.22
36092;BME280;22147;52.388;13.390;2023-03-14T10:24:21;98487.97;;;12.59;98.80
36092;BME280;22147;52.388;13.390;2023-03-14T10:27:05;98486.41;;;12.58;98.23
36092;BME280;22147;52.388;13.390;2023-03-14T10:30:07;98495.13;;;12.63;97.41
36092;BME280;22147;52.388;13.390;2023-03-14T10:32:56;98491.19;;;12.65;97.46
36092;BME280;22147;52.388;13.390;2023-03-14T10:35:26;98492.34;;;12.53;99.99
36092;BME280;22147;52.388;13.390;2023-03-14T10:38:01;98489.94;;;12.30;100.00
36092;BME280;22147;52.388;13.390;2023-03-14T10:40:38;98487.97;;;12.45;99.68
36092;BME280;22147;52.388;13.390;2023-03-14T10:43:17;98493.16;;;12.50;98.95
36092;BME280;22147;52.388;13.390;2023-03-14T10:46:14;98487.13;;;12.26;98.98
36092;BME280;22147;52.388;13.390;2023-03-14T10:48:47;98482.75;;;12.25;99.87
36092;BME280;22147;52.388;13.390;2023-03-14T10:51:29;98483.56;;;12.40;100.00
36092;BME280;22147;52.388;13.390;2023-03-14T10:54:13;98481.59;;;12.40;100.00
36092;BME280;22147;52.388;13.390;2023-03-14T10:56:59;98501.84;;;12.30;100.00
36092;BME280;22147;52.388;13.390;2023-03-14T10:59:39;98497.44;;;12.22;100.00
36092;BME280;22147;52.388;13.390;2023-03-14T11:06:41;98497.91;;;12.38;100.00
36092;BME280;22147;52.388;13.390;2023-03-14T11:15:41;98490.72;;;12.30;100.00
36092;BME280;22147;52.388;13.390;2023-03-14T11:18:46;98494.72;;;12.36;100.00
36092;BME280;22147;52.388;13.390;2023-03-14T11:25:26;98491.91;;;12.40;100.00
36092;BME280;22147;52.388;13.390;2023-03-14T11:28:21;98497.09;;;12.41;100.00
36092;BME280;22147;52.388;13.390;2023-03-14T11:31:14;98489.94;;;12.37;100.00
36092;BME280;22147;52.388;13.390;2023-03-14T11:37:06;98489.16;;;12.43;100.00
36092;BME280;22147;52.388;13.390;2023-03-14T11:39:59;98485.97;;;12.45;100.00
36092;BME280;22147;52.388;13.390;2023-03-14T11:42:43;98498.66;;;12.35;100.00
36092;BME280;22147;52.388;13.390;2023-03-14T11:45:33;98495.81;;;12.10;100.00
36092;BME280;22147;52.388;13.390;2023-03-14T11:48:30;98496.88;;;11.84;100.00
36092;BME280;22147;52.388;13.390;2023-03-14T11:51:13;98487.72;;;11.73;100.00
36092;BME280;22147;52.388;13.390;2023-03-14T11:54:08;98487.69;;;11.69;100.00
36092;BME280;22147;52.388;13.390;2023-03-14T11:57:04;98499.19;;;11.64;100.00
36092;BME280;22147;52.388;13.390;2023-03-14T12:09:07;98465.41;;;10.99;100.00
36092;BME280;22147;52.388;13.390;2023-03-14T12:12:01;98464.94;;;11.46;100.00
36092;BME280;22147;52.388;13.390;2023-03-14T12:14:36;98466.09;;;11.45;100.00
36092;BME280;22147;52.388;13.390;2023-03-14T12:17:38;98467.31;;;11.47;100.00
36092;BME280;22147;52.388;13.390;2023-03-14T12:23:01;98462.97;;;11.53;100.00
36092;BME280;22147;52.388;13.390;2023-03-14T12:25:34;98459.44;;;11.64;100.00
36092;BME280;22147;52.388;13.390;2023-03-14T12:28:20;98455.91;;;11.74;100.00
36092;BME280;22147;52.388;13.390;2023-03-14T12:30:49;98446.81;;;11.84;100.00
36092;BME280;22147;52.388;13.390;2023-03-14T12:35:59;98442.97;;;12.07;100.00
36092;BME280;22147;52.388;13.390;2023-03-14T12:41:44;98437.03;;;12.26;100.00
36092;BME280;22147;52.388;13.390;2023-03-14T12:49:53;98433.09;;;13.02;100.00
36092;BME280;22147;52.388;13.390;2023-03-14T13:10:27;98416.38;;;12.63;100.00
36092;BME280;22147;52.388;13.390;2023-03-14T13:13:20;98412.41;;;12.68;100.00
36092;BME280;22147;52.388;13.390;2023-03-14T13:16:01;98421.97;;;12.56;100.00
36092;BME280;22147;52.388;13.390;2023-03-14T13:19:09;98414.78;;;12.44;100.00
36092;BME280;22147;52.388;13.390;2023-03-14T13:21:47;98412.41;;;12.64;100.00
36092;BME280;22147;52.388;13.390;2023-03-14T13:24:25;98421.16;;;12.84;100.00
36092;BME280;22147;52.388;13.390;2023-03-14T13:31:30;98443.06;;;14.17;100.00
36092;BME280;22147;52.388;13.390;2023-03-14T13:34:06;98431.72;;;14.45;100.00
36092;BME280;22147;52.388;13.390;2023-03-14T13:36:39;98430.13;;;14.48;100.00
36092;BME280;22147;52.388;13.390;2023-03-14T13:39:18;98434.44;;;14.60;100.00
36092;BME280;22147;52.388;13.390;2023-03-14T13:41:55;98418.38;;;14.12;100.00
36092;BME280;22147;52.388;13.390;2023-03-14T13:44:36;98420.31;;;13.34;100.00
36092;BME280;22147;52.388;13.390;2023-03-14T13:47:19;98411.94;;;13.30;100.00
36092;BME280;22147;52.388;13.390;2023-03-14T13:49:52;98409.47;;;13.57;100.00
36092;BME280;22147;52.388;13.390;2023-03-14T13:52:27;98411.66;;;14.02;100.00
36092;BME280;22147;52.388;13.390;2023-03-14T13:55:03;98420.25;;;13.52;100.00
36092;BME280;22147;52.388;13.390;2023-03-14T13:57:48;98408.53;;;13.93;100.00
36092;BME280;22147;52.388;13.390;2023-03-14T14:00:27;98404.53;;;14.57;100.00
36092;BME280;22147;52.388;13.390;2023-03-14T14:03:00;98407.47;;;14.32;100.00
36092;BME280;22147;52.388;13.390;2023-03-14T14:05:30;98417.16;;;14.16;100.00
36092;BME280;22147;52.388;13.390;2023-03-14T14:08:03;98413.44;;;13.63;100.00
36092;BME280;22147;52.388;13.390;2023-03-14T14:10:37;98411.44;;;13.64;100.00
36092;BME280;22147;52.388;13.390;2023-03-14T14:13:16;98422.59;;;13.64;100.00
36092;BME280;22147;52.388;13.390;2023-03-14T14:15:54;98402.34;;;13.53;100.00
36092;BME280;22147;52.388;13.390;2023-03-14T14:18:31;98392.84;;;14.13;100.00
36092;BME280;22147;52.388;13.390;2023-03-14T14:21:04;98391.81;;;14.45;100.00
36092;BME280;22147;52.388;13.390;2023-03-14T14:23:35;98393.75;;;13.99;100.00
36092;BME280;22147;52.388;13.390;2023-03-14T14:26:06;98400.81;;;13.34;100.00
36092;BME280;22147;52.388;13.390;2023-03-14T14:28:37;98405.44;;;13.69;100.00